createdAt,value
2017-10-12T00:02:21.754Z,15.40
2017-10-12T00:04:49.359Z,15.40
2017-10-12T00:07:16.904Z,15.40
2017-10-12T00:09:44.441Z,15.40
2017-10-12T00:12:12.789Z,15.40
2017-10-12T00:14:40.333Z,15.40
2017-10-12T00:17:07.940Z,15.50
2017-10-12T00:19:35.482Z,15.40
2017-10-12T00:22:03.033Z,15.40
2017-10-12T00:24:30.624Z,15.50
2017-10-12T00:26:58.162Z,15.40
2017-10-12T00:29:26.513Z,15.40
2017-10-12T00:31:54.062Z,15.40
2017-10-12T00:34:21.618Z,15.40
2017-10-12T00:36:49.211Z,15.40
2017-10-12T00:39:16.968Z,15.40
2017-10-12T00:41:44.564Z,15.40
2017-10-12T00:44:12.134Z,15.30
2017-10-12T00:46:39.672Z,15.30
2017-10-12T00:49:07.270Z,15.30
2017-10-12T00:51:34.823Z,15.30
2017-10-12T00:54:02.401Z,15.30
2017-10-12T00:56:29.946Z,15.30
2017-10-12T00:58:57.506Z,15.30
2017-10-12T01:01:25.077Z,15.30
2017-10-12T01:03:53.440Z,15.30
2017-10-12T01:06:21.040Z,15.30
2017-10-12T01:08:48.573Z,15.30
2017-10-12T01:11:16.317Z,15.30
2017-10-12T01:13:43.899Z,15.30
2017-10-12T01:16:11.448Z,15.30
2017-10-12T01:18:39.043Z,15.30
2017-10-12T01:21:06.606Z,15.30
2017-10-12T01:23:34.368Z,15.30
2017-10-12T01:26:01.947Z,15.30
2017-10-12T01:28:30.276Z,15.30
2017-10-12T01:30:57.862Z,15.30
2017-10-12T01:33:25.397Z,15.40
2017-10-12T01:35:52.948Z,15.30
2017-10-12T01:38:20.517Z,15.40
2017-10-12T01:40:48.075Z,15.30
2017-10-12T01:43:15.910Z,15.20
2017-10-12T01:45:43.665Z,15.20
2017-10-12T01:48:12.010Z,15.10
2017-10-12T01:50:39.582Z,15.10
2017-10-12T01:53:07.894Z,15.00
2017-10-12T01:55:35.494Z,15.00
2017-10-12T01:58:03.033Z,15.00
2017-10-12T02:00:30.758Z,14.90
2017-10-12T02:02:58.341Z,14.90
2017-10-12T02:05:25.954Z,14.90
2017-10-12T02:07:53.555Z,14.90
2017-10-12T02:10:21.103Z,14.90
2017-10-12T02:12:48.647Z,14.90
2017-10-12T02:15:16.233Z,14.90
2017-10-12T02:17:43.835Z,14.90
2017-10-12T02:20:11.675Z,14.90
2017-10-12T02:22:39.213Z,14.90
2017-10-12T02:25:06.754Z,14.90
2017-10-12T02:27:34.326Z,14.90
2017-10-12T02:30:03.163Z,14.90
2017-10-12T02:32:30.766Z,14.90
2017-10-12T02:34:58.311Z,14.80
2017-10-12T02:37:25.845Z,14.90
2017-10-12T02:39:53.434Z,14.90
2017-10-12T02:42:20.980Z,14.90
2017-10-12T02:44:48.568Z,14.80
2017-10-12T02:47:16.870Z,14.80
2017-10-12T02:49:44.497Z,14.80
2017-10-12T02:52:12.859Z,14.70
2017-10-12T02:54:40.413Z,14.70
2017-10-12T02:57:08.010Z,14.70
2017-10-12T02:59:35.560Z,14.70
2017-10-12T03:02:03.895Z,14.60
2017-10-12T03:04:31.478Z,14.60
2017-10-12T03:06:59.147Z,14.60
2017-10-12T03:09:27.518Z,14.60
2017-10-12T03:11:55.078Z,14.60
2017-10-12T03:14:22.625Z,14.60
2017-10-12T03:16:50.233Z,14.60
2017-10-12T03:19:17.790Z,14.50
2017-10-12T03:21:45.424Z,14.60
2017-10-12T03:24:12.970Z,14.60
2017-10-12T03:26:40.526Z,14.60
2017-10-12T03:29:08.123Z,14.50
2017-10-12T03:31:36.424Z,14.50
2017-10-12T03:34:04.029Z,14.50
2017-10-12T03:36:31.569Z,14.50
2017-10-12T03:38:59.133Z,14.50
2017-10-12T03:41:26.708Z,14.50
2017-10-12T03:43:54.244Z,14.50
2017-10-12T03:46:21.825Z,14.40
2017-10-12T03:48:49.368Z,14.40
2017-10-12T03:51:16.899Z,14.40
2017-10-12T03:53:44.493Z,14.40
2017-10-12T03:56:12.042Z,14.40
2017-10-12T03:58:39.628Z,14.40
2017-10-12T04:01:07.951Z,14.40
2017-10-12T04:03:35.542Z,14.40
2017-10-12T04:06:03.133Z,14.40
2017-10-12T04:08:30.707Z,14.40
2017-10-12T04:10:59.074Z,14.40
2017-10-12T04:13:26.633Z,14.30
2017-10-12T04:15:54.962Z,14.40
2017-10-12T04:18:22.537Z,14.30
2017-10-12T04:20:50.098Z,14.30
2017-10-12T04:23:17.799Z,14.30
2017-10-12T04:25:45.599Z,14.30
2017-10-12T04:28:13.293Z,14.30
2017-10-12T04:30:40.886Z,14.40
2017-10-12T04:33:09.192Z,14.30
2017-10-12T04:35:37.037Z,14.30
2017-10-12T04:38:05.347Z,14.40
2017-10-12T04:40:32.895Z,14.30
2017-10-12T04:43:00.495Z,14.40
2017-10-12T04:45:28.041Z,14.40
2017-10-12T04:47:55.921Z,14.40
2017-10-12T04:50:23.489Z,14.40
2017-10-12T04:52:51.040Z,14.40
2017-10-12T04:55:18.622Z,14.40
2017-10-12T04:57:46.172Z,14.40
2017-10-12T05:00:13.770Z,14.40
2017-10-12T05:02:41.350Z,14.40
2017-10-12T05:05:08.914Z,14.40
2017-10-12T05:07:36.513Z,14.40
2017-10-12T05:10:04.059Z,14.40
2017-10-12T05:12:31.652Z,14.40
2017-10-12T05:14:59.225Z,14.40
2017-10-12T05:17:26.769Z,14.40
2017-10-12T05:19:54.342Z,14.40
2017-10-12T05:22:21.897Z,14.40
2017-10-12T05:24:49.654Z,14.40
2017-10-12T05:27:17.238Z,14.40
2017-10-12T05:29:45.509Z,14.40
2017-10-12T05:32:13.095Z,14.40
2017-10-12T05:34:40.661Z,14.40
2017-10-12T05:37:08.267Z,14.40
2017-10-12T05:39:35.810Z,14.40
2017-10-12T05:42:03.379Z,14.40
2017-10-12T05:44:30.989Z,14.40
2017-10-12T05:46:58.545Z,14.40
2017-10-12T05:49:27.254Z,14.50
2017-10-12T05:51:54.799Z,14.50
2017-10-12T05:54:22.354Z,14.60
2017-10-12T05:56:49.953Z,14.70
2017-10-12T05:59:17.490Z,14.70
2017-10-12T06:01:45.106Z,14.80
2017-10-12T06:04:12.689Z,14.90
2017-10-12T06:06:40.217Z,15.00
2017-10-12T06:09:07.790Z,15.10
2017-10-12T06:11:35.347Z,15.20
2017-10-12T06:14:03.238Z,15.20
2017-10-12T06:16:30.802Z,15.30
2017-10-12T06:18:58.350Z,15.30
2017-10-12T06:21:25.925Z,15.30
2017-10-12T06:23:53.504Z,15.40
2017-10-12T06:26:21.951Z,15.50
2017-10-12T06:28:49.480Z,15.50
2017-10-12T06:31:17.795Z,15.60
2017-10-12T06:33:45.405Z,15.50
2017-10-12T06:36:13.711Z,15.60
2017-10-12T06:38:41.505Z,15.60
2017-10-12T06:41:09.052Z,15.60
2017-10-12T06:43:36.578Z,15.70
2017-10-12T06:46:04.285Z,15.70
2017-10-12T06:48:31.823Z,15.70
2017-10-12T06:50:59.821Z,15.70
2017-10-12T06:53:27.361Z,15.70
2017-10-12T06:55:54.925Z,15.70
2017-10-12T06:58:22.525Z,15.70
2017-10-12T07:00:50.061Z,15.70
2017-10-12T07:03:17.679Z,15.70
2017-10-12T07:05:45.204Z,15.70
2017-10-12T07:08:12.757Z,15.70
2017-10-12T07:10:40.370Z,15.80
2017-10-12T07:13:07.954Z,15.80
2017-10-12T07:15:35.553Z,15.90
2017-10-12T07:18:03.153Z,16.10
2017-10-12T07:20:30.718Z,16.20
2017-10-12T07:22:58.304Z,16.20
2017-10-12T07:25:25.863Z,16.40
2017-10-12T07:27:53.926Z,16.40
2017-10-12T07:30:21.480Z,16.40
2017-10-12T07:32:49.034Z,16.50
2017-10-12T07:35:16.653Z,16.50
2017-10-12T07:37:44.202Z,16.60
2017-10-12T07:40:12.553Z,16.70
2017-10-12T07:42:40.144Z,16.60
2017-10-12T07:45:08.455Z,16.70
2017-10-12T07:47:36.147Z,16.70
2017-10-12T07:50:03.717Z,16.80
2017-10-12T07:52:31.769Z,16.80
2017-10-12T07:54:59.361Z,16.80
2017-10-12T07:57:26.905Z,16.90
2017-10-12T07:59:54.494Z,17.00
2017-10-12T08:02:22.325Z,17.00
2017-10-12T08:04:50.289Z,16.90
2017-10-12T08:07:17.828Z,16.90
2017-10-12T08:09:45.409Z,16.80
2017-10-12T08:12:13.010Z,16.80
2017-10-12T08:14:40.541Z,16.90
2017-10-12T08:17:08.127Z,17.10
2017-10-12T08:19:35.687Z,17.30
2017-10-12T08:22:04.004Z,17.60
2017-10-12T08:24:31.602Z,17.60
2017-10-12T08:26:59.134Z,17.80
2017-10-12T08:29:26.740Z,17.90
2017-10-12T08:31:55.062Z,18.20
2017-10-12T08:34:22.607Z,18.20
2017-10-12T08:36:50.353Z,18.40
2017-10-12T08:39:17.910Z,18.50
2017-10-12T08:41:45.509Z,18.70
2017-10-12T08:44:13.066Z,18.80
2017-10-12T08:46:40.601Z,19.00
2017-10-12T08:49:08.217Z,19.30
2017-10-12T08:51:36.538Z,19.30
2017-10-12T08:54:04.118Z,19.30
2017-10-12T08:56:31.663Z,19.10
2017-10-12T08:58:59.209Z,18.80
2017-10-12T09:01:27.182Z,19.00
2017-10-12T09:03:54.733Z,19.20
2017-10-12T09:06:22.338Z,19.30
2017-10-12T09:08:50.287Z,19.40
2017-10-12T09:11:17.898Z,19.50
2017-10-12T09:13:45.644Z,19.60
2017-10-12T09:16:13.224Z,19.50
2017-10-12T09:18:40.837Z,19.70
2017-10-12T09:21:08.577Z,19.80
2017-10-12T09:23:36.147Z,19.90
2017-10-12T09:26:17.293Z,19.90
2017-10-12T09:28:45.770Z,20.00
2017-10-12T09:31:14.134Z,20.10
2017-10-12T09:33:41.699Z,20.10
2017-10-12T09:36:09.998Z,20.30
2017-10-12T09:38:38.365Z,20.40
2017-10-12T09:41:05.912Z,20.40
2017-10-12T09:43:34.274Z,20.70
2017-10-12T09:46:01.847Z,20.70
2017-10-12T09:48:30.162Z,20.90
2017-10-12T09:50:57.734Z,20.90
2017-10-12T09:53:25.569Z,20.80
2017-10-12T09:55:53.168Z,20.50
2017-10-12T09:58:20.933Z,20.60
2017-10-12T10:00:48.485Z,20.50
2017-10-12T10:03:16.079Z,20.30
2017-10-12T10:05:43.624Z,20.70
2017-10-12T10:08:11.610Z,20.50
2017-10-12T10:10:39.226Z,20.40
2017-10-12T10:13:06.850Z,20.30
2017-10-12T10:15:34.445Z,20.20
2017-10-12T10:18:01.995Z,20.10
2017-10-12T10:20:29.870Z,20.20
2017-10-12T10:22:57.441Z,20.20
2017-10-12T10:25:25.002Z,20.20
2017-10-12T10:27:53.401Z,20.10
2017-10-12T10:30:20.965Z,20.10
2017-10-12T10:32:48.843Z,20.00
2017-10-12T10:35:16.390Z,19.80
2017-10-12T10:37:44.024Z,19.70
2017-10-12T10:40:11.655Z,19.50
2017-10-12T10:42:39.987Z,19.70
2017-10-12T10:45:07.581Z,19.70
2017-10-12T10:47:35.936Z,19.40
2017-10-12T10:50:03.490Z,19.50
2017-10-12T10:52:31.099Z,19.40
2017-10-12T10:54:58.649Z,19.40
2017-10-12T10:57:27.222Z,19.40
2017-10-12T10:59:54.782Z,19.40
2017-10-12T11:02:23.157Z,19.70
2017-10-12T11:04:50.764Z,19.60
2017-10-12T11:07:18.349Z,19.60
2017-10-12T11:09:45.948Z,19.60
2017-10-12T11:12:13.505Z,19.80
2017-10-12T11:14:41.842Z,19.70
2017-10-12T11:17:09.444Z,19.70
2017-10-12T11:19:37.762Z,19.70
2017-10-12T11:22:05.371Z,19.60
2017-10-12T11:24:33.681Z,19.70
2017-10-12T11:27:01.226Z,19.70
2017-10-12T11:29:28.801Z,19.60
2017-10-12T11:31:56.355Z,19.60
2017-10-12T11:34:24.225Z,19.60
2017-10-12T11:36:51.770Z,19.60
2017-10-12T11:39:20.090Z,19.70
2017-10-12T11:41:47.757Z,19.60
2017-10-12T11:44:15.337Z,19.60
2017-10-12T11:46:42.945Z,19.60
2017-10-12T11:49:10.502Z,19.70
2017-10-12T11:51:38.095Z,19.90
2017-10-12T11:54:05.714Z,19.90
2017-10-12T11:56:33.258Z,19.90
2017-10-12T11:59:01.905Z,19.80
2017-10-12T12:01:29.462Z,19.80
2017-10-12T12:03:57.014Z,19.70
2017-10-12T12:06:24.633Z,19.50
2017-10-12T12:08:52.171Z,19.30
2017-10-12T12:11:19.758Z,19.10
2017-10-12T12:13:47.314Z,19.10
2017-10-12T12:16:15.641Z,18.80
2017-10-12T12:18:43.254Z,18.80
2017-10-12T12:21:11.575Z,18.70
2017-10-12T12:23:39.157Z,18.70
2017-10-12T12:26:06.702Z,18.70
2017-10-12T12:28:34.288Z,18.60
2017-10-12T12:31:02.795Z,18.60
2017-10-12T12:33:30.366Z,18.60
2017-10-12T12:35:58.015Z,18.70
2017-10-12T12:38:25.577Z,18.80
2017-10-12T12:40:53.216Z,18.80
2017-10-12T12:43:21.621Z,18.80
2017-10-12T12:45:49.162Z,18.80
2017-10-12T12:48:17.520Z,18.70
2017-10-12T12:50:45.236Z,18.70
2017-10-12T12:53:12.796Z,18.70
2017-10-12T12:55:40.409Z,18.70
2017-10-12T12:58:07.961Z,18.80
2017-10-12T13:00:35.873Z,18.90
2017-10-12T13:03:03.430Z,19.00
2017-10-12T13:05:31.002Z,19.10
2017-10-12T13:07:58.595Z,19.20
2017-10-12T13:10:26.343Z,19.20
2017-10-12T13:12:53.947Z,19.10
2017-10-12T13:15:21.517Z,19.00
2017-10-12T13:17:49.831Z,18.90
2017-10-12T13:20:17.457Z,18.90
2017-10-12T13:22:45.784Z,18.70
2017-10-12T13:25:13.446Z,18.70
2017-10-12T13:27:41.092Z,18.60
2017-10-12T13:30:08.673Z,18.50
2017-10-12T13:32:36.312Z,18.40
2017-10-12T13:35:03.909Z,18.30
2017-10-12T13:37:31.584Z,18.30
2017-10-12T13:39:59.176Z,18.20
2017-10-12T13:42:26.795Z,18.20
2017-10-12T13:44:55.194Z,18.20
2017-10-12T13:47:22.753Z,18.10
2017-10-12T13:49:51.162Z,18.20
2017-10-12T13:52:19.034Z,18.20
2017-10-12T13:54:46.661Z,18.10
2017-10-12T13:57:14.564Z,18.10
2017-10-12T13:59:42.584Z,18.10
2017-10-12T14:02:10.287Z,18.00
2017-10-12T14:04:38.100Z,18.00
2017-10-12T14:07:05.669Z,17.90
2017-10-12T14:09:33.258Z,17.90
2017-10-12T14:12:00.802Z,17.90
2017-10-12T14:14:28.466Z,17.80
2017-10-12T14:16:56.786Z,17.80
2017-10-12T14:19:24.334Z,17.80
2017-10-12T14:21:51.929Z,17.80
2017-10-12T14:24:19.521Z,17.80
2017-10-12T14:26:47.877Z,17.80
2017-10-12T14:29:16.947Z,17.70
2017-10-12T14:31:44.520Z,17.70
2017-10-12T14:34:12.129Z,17.70
2017-10-12T14:36:39.670Z,17.70
2017-10-12T14:39:08.891Z,17.60
2017-10-12T14:41:36.425Z,17.60
2017-10-12T14:44:04.759Z,17.50
2017-10-12T14:46:32.340Z,17.50
2017-10-12T14:48:59.881Z,17.50
2017-10-12T14:51:27.469Z,17.40
2017-10-12T14:53:55.024Z,17.40
2017-10-12T14:56:22.584Z,17.30
2017-10-12T14:58:50.181Z,17.30
2017-10-12T15:01:17.826Z,17.30
2017-10-12T15:03:45.434Z,17.20
2017-10-12T15:06:12.986Z,17.20
2017-10-12T15:08:40.525Z,17.20
2017-10-12T15:11:08.139Z,17.20
2017-10-12T15:13:41.263Z,17.10
2017-10-12T15:16:08.880Z,17.10
2017-10-12T15:18:36.453Z,17.00
2017-10-12T15:21:04.813Z,16.90
2017-10-12T15:23:32.436Z,16.90
2017-10-12T15:26:00.032Z,16.90
2017-10-12T15:28:27.788Z,16.80
2017-10-12T15:30:55.355Z,16.80
2017-10-12T15:33:22.896Z,16.70
2017-10-12T15:35:50.496Z,16.70
2017-10-12T15:38:18.043Z,16.70
2017-10-12T15:40:45.645Z,16.60
2017-10-12T15:43:13.978Z,16.50
2017-10-12T15:45:41.721Z,16.50
2017-10-12T15:48:09.303Z,16.50
2017-10-12T15:50:36.846Z,16.40
2017-10-12T15:53:04.438Z,16.40
2017-10-12T15:55:33.550Z,16.30
2017-10-12T15:58:01.111Z,16.30
2017-10-12T16:00:29.483Z,16.20
2017-10-12T16:02:57.057Z,16.20
2017-10-12T16:05:25.643Z,16.10
2017-10-12T16:07:53.190Z,16.00
2017-10-12T16:10:21.497Z,15.90
2017-10-12T16:12:49.080Z,15.90
2017-10-12T16:15:16.637Z,15.80
2017-10-12T16:17:44.254Z,15.80
2017-10-12T16:20:12.640Z,15.70
2017-10-12T16:25:07.974Z,15.70
2017-10-12T16:27:35.542Z,15.60
2017-10-12T16:30:03.283Z,15.60
2017-10-12T16:32:30.875Z,15.50
2017-10-12T16:34:58.432Z,15.50
2017-10-12T16:37:26.022Z,15.40
2017-10-12T16:39:53.573Z,15.30
2017-10-12T16:42:21.185Z,15.30
2017-10-12T16:44:48.795Z,15.20
2017-10-12T16:47:16.392Z,15.20
2017-10-12T16:49:44.749Z,15.10
2017-10-12T16:52:12.286Z,15.00
2017-10-12T16:54:39.907Z,15.00
2017-10-12T16:57:07.481Z,15.00
2017-10-12T16:59:35.124Z,14.90
2017-10-12T17:02:03.736Z,14.80
2017-10-12T17:04:31.318Z,14.80
2017-10-12T17:06:58.953Z,14.80
2017-10-12T17:09:26.524Z,14.80
2017-10-12T17:11:54.125Z,14.70
2017-10-12T17:14:21.757Z,14.70
2017-10-12T17:16:49.501Z,14.70
2017-10-12T17:19:17.640Z,14.60
2017-10-12T17:21:45.346Z,14.60
2017-10-12T17:24:13.308Z,14.50
2017-10-12T17:26:41.177Z,14.50
2017-10-12T17:29:09.449Z,14.40
2017-10-12T17:31:37.195Z,14.40
2017-10-12T17:34:04.946Z,14.40
2017-10-12T17:36:32.689Z,14.40
2017-10-12T17:39:00.522Z,14.30
2017-10-12T17:41:28.249Z,14.30
2017-10-12T17:43:56.090Z,14.30
2017-10-12T17:46:23.865Z,14.30
2017-10-12T17:48:51.773Z,14.30
2017-10-12T17:51:19.840Z,14.30
2017-10-12T17:53:47.725Z,14.30
2017-10-12T17:56:16.825Z,14.30
2017-10-12T17:58:45.692Z,14.30
2017-10-12T18:01:13.766Z,14.30
2017-10-12T18:03:42.041Z,14.30
2017-10-12T18:06:10.119Z,14.30
2017-10-12T18:08:38.805Z,14.30
2017-10-12T18:11:06.576Z,14.20
2017-10-12T18:13:34.262Z,14.20
2017-10-12T18:16:01.940Z,14.20
2017-10-12T18:18:29.602Z,14.20
2017-10-12T18:20:57.281Z,14.10
2017-10-12T18:23:25.186Z,14.10
2017-10-12T18:25:53.045Z,14.10
2017-10-12T18:28:20.911Z,14.00
2017-10-12T18:30:48.636Z,14.00
2017-10-12T18:33:17.653Z,13.90
2017-10-12T18:35:45.375Z,13.90
2017-10-12T18:38:15.087Z,13.90
2017-10-12T18:40:43.606Z,13.90
2017-10-12T18:43:11.220Z,13.90
2017-10-12T18:45:38.803Z,13.90
2017-10-12T18:48:06.459Z,13.90
2017-10-12T18:50:34.081Z,13.90
2017-10-12T18:53:01.667Z,14.00
2017-10-12T18:55:29.344Z,14.00
2017-10-12T18:57:57.965Z,14.10
2017-10-12T19:00:26.169Z,14.00
2017-10-12T19:02:53.818Z,14.10
2017-10-12T19:05:21.404Z,14.10
2017-10-12T19:07:48.983Z,14.10
2017-10-12T19:10:16.565Z,14.10
2017-10-12T19:12:44.872Z,14.10
2017-10-12T19:17:46.391Z,14.10
2017-10-12T19:20:13.936Z,14.10
2017-10-12T19:22:41.569Z,14.10
2017-10-12T19:25:09.176Z,14.10
2017-10-12T19:27:37.661Z,14.10
2017-10-12T19:30:05.997Z,14.10
2017-10-12T19:32:33.594Z,14.10
2017-10-12T19:35:01.907Z,14.10
2017-10-12T19:37:29.510Z,14.10
2017-10-12T19:39:57.476Z,14.10
2017-10-12T19:42:25.191Z,14.10
2017-10-12T19:44:52.739Z,14.10
2017-10-12T19:47:21.107Z,14.10
2017-10-12T19:49:48.792Z,14.10
2017-10-12T19:52:16.383Z,14.10
2017-10-12T19:54:43.998Z,14.00
2017-10-12T19:57:11.627Z,14.00
2017-10-12T19:59:39.198Z,14.00
2017-10-12T20:02:07.142Z,14.00
2017-10-12T20:04:34.772Z,14.00
2017-10-12T20:07:02.329Z,14.00
2017-10-12T20:09:29.922Z,14.00
2017-10-12T20:11:57.493Z,14.00
2017-10-12T20:14:25.074Z,14.00
2017-10-12T20:16:53.442Z,14.00
2017-10-12T20:19:21.041Z,14.00
2017-10-12T20:21:48.611Z,14.00
2017-10-12T20:26:43.821Z,14.00
2017-10-12T20:31:39.031Z,14.00
2017-10-12T20:34:06.579Z,14.00
2017-10-12T20:39:02.865Z,14.00
2017-10-12T20:41:30.417Z,14.00
2017-10-12T20:43:57.965Z,14.00
2017-10-12T20:46:25.597Z,14.00
2017-10-12T20:48:53.299Z,13.90
2017-10-12T20:51:20.861Z,13.90
2017-10-12T20:53:48.469Z,13.90
2017-10-12T20:56:16.032Z,13.90
2017-10-12T20:58:43.609Z,13.90
2017-10-12T21:01:11.981Z,13.90
2017-10-12T21:03:40.311Z,14.00
2017-10-12T21:06:08.048Z,13.90
2017-10-12T21:08:36.156Z,14.00
2017-10-12T21:11:03.728Z,14.00
2017-10-12T21:13:31.310Z,14.00
2017-10-12T21:15:58.917Z,14.00
2017-10-12T21:18:26.468Z,14.00
2017-10-12T21:20:54.098Z,13.90
2017-10-12T21:23:22.449Z,13.90
2017-10-12T21:25:50.001Z,13.90
2017-10-12T21:28:17.546Z,13.90
2017-10-12T21:30:45.146Z,13.90
2017-10-12T21:33:12.708Z,13.80
2017-10-12T21:35:41.071Z,13.80
2017-10-12T21:38:09.112Z,13.80
2017-10-12T21:40:36.667Z,13.70
2017-10-12T21:43:04.258Z,13.70
2017-10-12T21:45:31.862Z,13.70
2017-10-12T21:47:59.551Z,13.60
2017-10-12T21:50:27.102Z,13.60
2017-10-12T21:52:54.747Z,13.60
2017-10-12T21:55:22.364Z,13.50
2017-10-12T21:57:49.921Z,13.50
2017-10-12T22:00:17.546Z,13.50
2017-10-12T22:02:45.117Z,13.50
2017-10-12T22:05:12.673Z,13.50
2017-10-12T22:07:40.285Z,13.50
2017-10-12T22:10:07.847Z,13.40
2017-10-12T22:12:35.405Z,13.40
2017-10-12T22:15:03.017Z,13.40
2017-10-12T22:17:30.562Z,13.40
2017-10-12T22:19:58.117Z,13.40
2017-10-12T22:22:25.705Z,13.30
2017-10-12T22:24:53.250Z,13.30
2017-10-12T22:27:20.803Z,13.30
2017-10-12T22:29:48.389Z,13.30
2017-10-12T22:32:15.937Z,13.30
2017-10-12T22:34:43.565Z,13.30
2017-10-12T22:37:11.142Z,13.20
2017-10-12T22:39:38.677Z,13.20
2017-10-12T22:42:06.265Z,13.20
2017-10-12T22:44:33.830Z,13.20
2017-10-12T22:47:01.362Z,13.20
2017-10-12T22:49:28.948Z,13.20
2017-10-12T22:51:56.488Z,13.20
2017-10-12T22:54:24.093Z,13.20
2017-10-12T22:56:51.641Z,13.10
2017-10-12T22:59:19.195Z,13.10
2017-10-12T23:01:46.853Z,13.10
2017-10-12T23:04:14.505Z,13.00
2017-10-12T23:06:42.096Z,13.00
2017-10-12T23:09:09.641Z,13.00
2017-10-12T23:11:37.325Z,13.00
2017-10-12T23:14:05.797Z,13.00
2017-10-12T23:16:34.114Z,12.90
2017-10-12T23:19:01.706Z,12.90
2017-10-12T23:21:29.247Z,12.90
2017-10-12T23:23:56.998Z,12.90
2017-10-12T23:26:24.585Z,12.90
2017-10-12T23:28:52.153Z,12.90
2017-10-12T23:31:19.752Z,12.90
2017-10-12T23:33:47.314Z,12.90
2017-10-12T23:36:15.797Z,12.80
2017-10-12T23:38:43.606Z,12.80
2017-10-12T23:41:11.189Z,12.80
2017-10-12T23:43:38.782Z,12.80
2017-10-12T23:46:06.329Z,12.70
2017-10-12T23:48:33.881Z,12.70
2017-10-12T23:51:02.247Z,12.70
2017-10-12T23:53:29.821Z,12.70
2017-10-12T23:55:58.653Z,12.70
2017-10-12T23:58:26.385Z,12.70
